Datos de la estación

Estación Meteorológica de Zafarraya

Provincia: Granada
Código de Estación: 8
Primer día registrado: 07-09-2000
Último día registrado: 17-01-2022

Datos Localización

Latitud: 36º 59' 25'' N
Longitud: 04º 09' 13'' W
Altitud: 892

Coordenadas UTM

X: 397321
Y: 4094420

Fecha de Medida
17-01-2022
Día Juliano
17
Temp. Máxima (ºC)
10.7
Velocidad Viento Media (m/s)
0.9
Hora Temp. Máxima
12:24
Dirección Viento Media (º)
194.4
Temp. Mínima (ºC)
-3.0
Radiación (MJ/m2 d)
11.9
Hora Temp. Mínima
5:46
Precipitación (mm)
0.2
Temp. Media (ºC)
4.5
ETo (mm/dia)
0.9
Humedad Relativa Máxima (%)
99.9
Humedad Relativa Mínima (%)
60.1
Precipitación Acumulada (mm)
165.8
Humedad Relativa Media (%)
87.6
ETo Acumulada (mm)
256.7
Temperatura Máxima Humedad Máxima Dirección del Viento
Temperatura Mínima Humedad Mínima Precipitación
Temperatura Media Humedad Media ETo
HH:MM Temperatura Máxima Radiación Marcar Todas
HH:MM Temperatura Mínima Velocidad del Viento
 
Fecha Día Juliano Temp. Máxima (ºC) Hora Temp Máxima Temp. Mínima (ºC) Hora Temp Mínima Temp. Media (ºC) Humedad Relativa Máxima (%) Humedad Relativa Media (%) Humedad Relativa Mínima (%) Velocidad Viento Media (m/s) Dirección Viento Media (º) Radiación (MJ/m2 d) Precipitación (mm) ETo (mm/dia)
17-01-2022 17 10.7 12:24 -3.0 5:46 4.5 99.9 87.6 60.1 0.9 194.4 11.9 0.2 0.9
16-01-2022 16 12.0 14:42 -1.6 3:40 4.2 99.9 88.4 58.4 0.4 163.3 11.8 0.2 0.8
15-01-2022 15 10.3 14:34 -1.6 7:02 4.5 99.9 86.6 59.5 0.5 179.1 10.4 0.0 0.8
14-01-2022 14 10.7 14:14 -1.2 5:00 4.7 98.9 84.2 52.4 0.6 236.6 8.3 0.2 0.8
13-01-2022 13 9.9 14:22 -2.5 6:30 3.3 99.9 89.4 53.0 0.8 186.1 11.1 0.0 0.9
12-01-2022 12 8.6 14:24 1.2 23:46 6.4 100.0 96.4 85.7 0.4 216.3 2.8 0.0 0.5
11-01-2022 11 13.0 12:22 1.3 7:14 8.3 99.9 85.8 67.1 0.8 191.8 9.3 0.0 0.9
10-01-2022 10 17.4 13:46 5.0 6:26 11.5 93.8 63.8 40.2 1.6 9.7 11.7 0.0 1.6
09-01-2022 9 15.8 12:20 2.7 1:04 10.3 75.3 43.4 12.7 2.0 4.8 12.3 0.4 2.2
08-01-2022 8 14.8 13:46 -2.4 7:40 5.2 99.9 66.5 26.4 0.4 268.9 11.1 0.0 0.8
07-01-2022 7 13.6 15:36 -1.2 7:28 5.8 97.5 66.3 13.9 0.9 19.3 11.7 0.0 1.2
06-01-2022 6 13.0 13:24 1.7 23:52 7.3 99.9 71.4 36.5 1.5 339.8 10.8 5.2 1.3
05-01-2022 5 8.5 13:24 4.7 6:42 6.6 99.9 74.1 59.9 1.6 357.1 8.0 5.6 0.9
04-01-2022 4 16.9 12:52 1.0 7:08 7.8 99.9 78.2 37.9 1.5 304.6 10.2 2.6 1.5
03-01-2022 3 22.0 13:52 -0.5 7:38 8.5 99.9 69.6 19.3 0.2 186.3 11.4 0.2 0.7
02-01-2022 2 22.3 14:24 -0.1 7:26 8.5 99.9 71.2 18.5 0.2 157.1 11.4 0.0 0.7
01-01-2022 1 21.6 14:10 0.5 7:32 8.4 99.9 75.5 21.3 0.2 156.8 11.1 0.0 0.7
31-12-2021 365 23.9 13:24 1.4 7:24 9.7 99.9 71.6 18.3 0.2 196.2 10.9 0.0 0.7
30-12-2021 364 23.9 15:12 1.7 7:32 9.9 98.2 69.0 19.1 0.3 266.2 10.8 0.0 0.9
29-12-2021 363 23.9 14:44 3.2 7:28 11.1 97.9 68.7 15.7 0.3 252.4 10.6 0.0 0.9
28-12-2021 362 15.5 10:56 7.5 23:56 11.8 89.0 75.0 51.7 2.0 26.3 9.2 0.0 1.4
27-12-2021 361 15.5 13:26 11.3 6:54 13.1 99.9 87.7 69.0 1.4 296.5 5.8 4.2 0.9
26-12-2021 360 13.4 15:04 8.7 4:58 11.1 99.9 89.5 69.7 1.9 293.3 4.6 2.6 0.9
25-12-2021 359 10.7 19:42 7.9 00:44 9.8 99.9 99.7 95.9 1.7 204.6 1.6 27.0 0.5
24-12-2021 358 10.9 11:54 5.7 22:10 9.0 100.0 99.5 90.3 0.6 276.3 2.1 18.2 0.5
23-12-2021 357 10.9 10:10 4.9 1:00 9.0 99.9 99.9 99.8 0.4 228.1 1.9 6.6 0.5
22-12-2021 356 14.8 15:04 6.0 23:58 10.2 99.9 95.0 67.6 0.6 161.2 3.4 4.4 0.7
21-12-2021 355 17.8 12:56 4.0 4:38 10.4 100.0 75.2 45.0 0.4 246.4 7.5 0.0 0.8
20-12-2021 354 14.6 15:34 6.8 23:56 10.1 99.9 85.7 55.3 0.2 101.7 4.7 0.4 0.6
19-12-2021 353 10.7 11:20 2.1 5:36 7.8 100.0 92.4 77.4 0.5 219.3 3.5 0.2 0.6
18-12-2021 352 12.0 13:46 1.9 5:20 7.3 100.0 87.0 57.1 0.5 184.8 7.0 0.0 0.7
17-12-2021 351 12.6 11:36 -1.4 6:48 5.6 99.9 86.4 47.7 0.6 187.8 7.7 0.2 0.8
16-12-2021 350 13.3 13:56 1.1 --:-- 7.1 99.9 83.1 57.3 0.6 174.9 9.9 0.0 0.8
15-12-2021 349 12.3 13:04 0.9 5:24 7.0 99.9 86.0 64.3 0.9 199.8 9.7 0.2 0.8
14-12-2021 348 13.1 11:54 -1.8 7:38 5.5 97.8 85.5 49.1 0.7 179.1 10.8 0.0 0.8
13-12-2021 347 15.0 14:12 0.9 7:24 8.0 93.0 69.8 46.2 0.6 241.2 11.1 0.0 0.9
12-12-2021 346 16.9 12:18 0.5 7:28 8.5 94.5 71.2 43.3 0.7 228.6 10.9 0.0 1.0
11-12-2021 345 18.1 13:30 7.6 23:58 13.7 75.1 51.8 36.7 2.7 37.8 10.8 0.6 2.3
10-12-2021 344 10.9 11:44 4.4 6:16 9.0 93.2 79.5 63.0 3.0 359.3 6.4 2.0 1.2
09-12-2021 343 12.0 12:54 4.1 7:14 8.0 81.2 70.6 54.5 2.1 9.6 10.1 0.0 1.3
08-12-2021 342 10.5 13:42 6.6 23:04 8.7 98.2 76.9 57.0 1.9 302.8 4.0 7.4 1.0
07-12-2021 341 17.9 11:50 0.6 7:00 9.2 88.1 67.9 42.2 1.0 301.8 11.0 0.0 1.3
06-12-2021 340 15.2 14:16 2.1 6:42 8.5 85.4 58.9 24.7 1.0 339.7 11.3 0.0 1.3
05-12-2021 339 11.1 12:22 5.1 7:24 8.2 77.5 64.0 40.4 2.3 7.7 11.5 1.2 1.6
04-12-2021 338 13.8 11:22 -1.0 5:22 7.2 91.2 72.5 44.2 1.6 21.6 11.2 0.4 1.3
03-12-2021 337 12.4 15:28 1.2 6:06 6.5 82.5 55.0 34.5 1.6 21.5 11.5 0.0 1.4
02-12-2021 336 8.9 13:58 4.7 19:38 6.8 96.4 72.6 58.0 2.2 339.8 7.2 5.6 1.1
01-12-2021 335 13.4 12:50 -2.6 5:00 5.1 99.9 79.7 44.6 1.0 335.0 10.8 0.6 1.1
30-11-2021 334 13.8 12:40 -1.1 6:16 5.5 99.1 80.9 47.9 0.4 213.1 11.5 0.0 0.8
29-11-2021 333 9.3 14:16 4.1 23:06 7.0 96.0 78.1 63.6 1.8 4.9 3.2 2.8 0.9
28-11-2021 332 8.0 13:48 1.0 4:28 4.6 79.1 58.3 40.8 1.5 354.1 11.7 0.0 1.2
27-11-2021 331 8.7 10:38 3.8 23:56 6.0 82.4 67.7 51.2 1.9 332.5 7.9 3.4 1.2
26-11-2021 330 10.8 13:28 1.3 6:20 6.4 98.2 72.6 45.7 1.3 355.3 10.3 0.0 1.1
25-11-2021 329 11.7 12:36 4.4 6:46 7.3 93.5 73.7 54.9 0.9 283.1 10.2 0.4 1.0
24-11-2021 328 9.7 13:08 3.0 3:14 6.0 83.4 74.1 56.7 1.3 334.1 8.9 0.0 1.0
23-11-2021 327 10.6 14:48 2.6 6:10 6.5 93.1 69.8 48.0 1.6 294.0 11.0 2.4 1.2
22-11-2021 326 11.5 15:06 7.1 --:-- 9.7 99.9 86.0 70.5 1.2 278.8 4.5 8.4 0.8
21-11-2021 325 15.8 13:54 5.8 5:06 10.1 99.9 81.9 50.9 0.7 296.7 9.9 0.2 1.1
20-11-2021 324 13.3 00:04 8.4 23:00 10.5 99.9 84.6 49.6 0.3 296.5 2.1 2.0 0.7
19-11-2021 323 16.4 14:32 3.9 3:10 11.1 90.9 61.9 39.3 1.2 135.2 6.6 0.2 1.4
18-11-2021 322 16.1 13:20 0.0 5:36 7.5 99.9 81.0 48.0 0.4 206.3 9.5 0.0 1.0
17-11-2021 321 14.4 12:54 -1.4 7:14 5.7 96.6 81.7 47.5 0.4 154.9 11.0 0.0 0.9
16-11-2021 320 15.3 13:52 -1.0 6:46 6.3 90.3 68.7 37.6 0.4 183.6 13.2 0.0 1.0
15-11-2021 319 16.5 14:12 3.0 23:50 11.2 77.1 49.2 27.1 1.8 14.0 13.6 0.0 2.1
14-11-2021 318 19.2 12:56 1.7 4:04 10.7 97.1 64.8 35.6 0.8 350.3 13.0 0.0 1.5
13-11-2021 317 17.1 12:08 0.7 6:28 8.2 95.8 74.8 43.9 0.5 181.1 13.1 0.2 1.2
12-11-2021 316 16.4 13:08 0.9 6:24 7.9 93.3 70.1 40.2 0.4 181.6 12.5 0.0 1.1
11-11-2021 315 16.6 12:22 0.0 6:44 7.9 95.2 69.0 34.6 0.5 274.8 11.6 0.0 1.2
10-11-2021 314 16.4 12:16 0.1 5:56 7.5 96.2 74.7 42.7 0.4 175.1 13.1 0.0 1.2
09-11-2021 313 17.2 13:16 2.6 23:48 8.9 90.5 64.5 33.6 0.6 222.0 14.3 0.0 1.4
08-11-2021 312 17.3 12:30 -0.4 6:18 9.1 79.6 50.7 22.4 1.0 19.9 14.6 0.0 1.8
07-11-2021 311 15.2 13:46 1.3 5:30 8.0 79.9 49.5 20.6 0.9 278.4 14.8 0.0 1.6
06-11-2021 310 13.6 15:08 2.2 7:08 8.0 81.8 56.8 32.4 1.2 14.3 14.4 0.0 1.7
05-11-2021 309 13.0 13:50 4.0 1:48 8.6 81.6 54.8 40.2 2.3 36.9 14.9 0.0 2.0
04-11-2021 308 11.9 13:50 3.9 7:02 8.6 84.5 62.8 48.0 1.6 359.5 11.8 0.0 1.6
03-11-2021 307 12.3 1:30 7.4 23:48 10.4 87.3 68.1 54.4 1.9 323.2 9.7 0.2 1.5
02-11-2021 306 16.3 11:42 12.0 22:20 14.1 89.8 80.5 59.5 1.6 288.2 9.1 0.2 1.6
01-11-2021 305 18.3 14:36 15.1 5:58 16.1 99.3 92.9 79.9 1.5 269.7 2.4 14.4 0.9
31-10-2021 304 18.9 12:58 15.6 22:16 16.7 99.9 93.1 81.0 1.7 278.0 4.9 12.2 1.1
30-10-2021 303 17.7 23:38 13.6 5:04 15.7 100.0 85.8 65.3 1.5 210.4 5.6 0.8 1.3
29-10-2021 302 18.3 12:34 7.5 6:04 13.5 82.0 63.4 43.9 0.8 204.4 12.1 0.0 1.7
28-10-2021 301 18.7 13:32 7.4 23:46 12.7 94.9 74.4 49.8 0.7 202.9 14.9 0.0 1.8
27-10-2021 300 19.7 13:32 3.1 6:38 11.8 95.1 77.5 47.2 0.6 193.9 15.6 0.0 1.8
26-10-2021 299 18.2 13:00 6.8 23:38 12.4 94.6 76.2 47.4 0.8 200.1 13.3 0.0 1.7
25-10-2021 298 19.2 12:58 3.2 6:24 11.2 92.8 78.4 49.0 0.6 169.9 14.7 0.0 1.7
24-10-2021 297 19.5 12:40 3.8 5:00 11.1 93.8 75.5 51.1 0.6 171.9 16.2 0.0 1.8
23-10-2021 296 19.2 13:14 6.8 23:38 12.8 94.4 74.7 51.6 0.7 185.2 17.7 0.0 2.0
22-10-2021 295 20.8 14:00 5.0 6:16 13.9 85.2 57.6 35.4 0.9 316.6 14.3 0.0 2.1
21-10-2021 294 24.3 11:16 6.0 5:50 15.4 83.2 56.9 32.3 0.8 294.7 15.9 0.0 2.4
20-10-2021 293 22.8 13:50 6.0 6:50 14.4 99.9 67.4 34.6 0.6 203.6 16.8 0.2 2.2
19-10-2021 292 20.8 14:28 9.4 5:48 15.1 95.0 75.9 53.4 0.7 209.8 16.5 0.0 2.1
18-10-2021 291 22.8 12:10 8.0 6:24 15.5 85.3 64.1 41.8 0.7 173.8 16.8 0.0 2.3
17-10-2021 290 25.5 12:58 11.9 23:30 18.5 74.4 46.3 28.6 0.7 281.3 14.4 0.0 2.4
16-10-2021 289 25.0 13:18 6.4 6:30 16.6 85.1 50.5 22.6 0.7 267.4 16.8 0.0 2.5
15-10-2021 288 22.2 14:10 5.1 5:32 13.3 100.0 70.9 32.5 0.6 169.0 17.5 0.2 2.3
14-10-2021 287 19.2 12:22 7.9 23:50 14.0 96.0 78.8 57.9 0.7 201.5 17.5 0.0 2.2
13-10-2021 286 22.4 10:38 8.3 6:22 15.5 99.9 80.2 43.6 0.7 162.8 17.6 0.0 2.4
12-10-2021 285 20.8 12:24 12.3 5:54 15.8 92.0 77.2 47.1 0.9 190.1 17.0 0.0 2.5
11-10-2021 284 21.4 12:08 7.3 6:04 14.4 99.9 76.5 39.9 0.6 158.5 16.4 0.2 2.3
10-10-2021 283 20.6 13:52 10.3 23:56 15.5 96.0 79.4 58.1 0.6 227.5 18.6 0.0 2.4
09-10-2021 282 21.3 14:16 10.3 00:14 16.1 96.4 81.1 60.6 0.9 211.1 17.6 0.0 2.5
08-10-2021 281 23.7 16:02 7.1 6:06 15.4 95.9 74.4 43.6 0.7 181.2 19.1 0.0 2.7
07-10-2021 280 22.4 12:26 7.0 6:14 14.8 91.9 73.7 53.1 0.7 161.7 18.4 0.0 2.5
06-10-2021 279 24.0 11:46 7.9 6:30 15.8 88.6 60.2 32.1 0.6 191.8 19.7 0.0 2.8
05-10-2021 278 24.3 13:10 5.2 6:22 15.5 87.5 54.6 27.9 0.7 266.8 19.1 0.0 2.8
04-10-2021 277 20.8 15:04 9.5 3:26 14.4 68.5 49.3 23.6 1.1 51.1 16.4 0.0 2.9
03-10-2021 276 20.8 12:50 6.7 6:02 14.1 93.8 72.2 45.2 1.3 301.1 15.6 5.2 2.6
02-10-2021 275 24.1 13:26 9.4 4:22 16.7 88.3 67.4 42.2 0.7 177.9 19.5 0.0 2.9
01-10-2021 274 25.4 14:24 7.0 6:16 16.9 96.5 63.2 29.4 0.8 222.3 18.8 0.0 3.0
30-09-2021 273 23.2 13:50 7.9 6:04 15.7 95.4 73.9 51.9 0.6 164.9 20.0 0.0 2.8
29-09-2021 272 25.4 11:06 8.1 5:48 17.0 86.2 58.9 31.5 0.7 183.7 20.6 0.0 3.1
28-09-2021 271 24.9 16:24 6.9 6:26 16.4 89.2 61.0 28.3 0.7 175.6 21.0 0.0 3.2
27-09-2021 270 26.1 12:58 7.2 6:30 16.6 92.1 60.8 22.6 0.6 172.3 21.4 0.0 3.2
26-09-2021 269 25.2 13:56 8.7 6:34 16.7 95.4 65.9 31.3 0.6 182.2 21.1 0.2 3.2
25-09-2021 268 24.2 14:44 11.8 23:44 19.0 96.0 65.7 38.5 1.1 205.5 21.0 0.0 3.5
24-09-2021 267 21.4 15:28 16.9 4:48 19.0 95.6 84.1 68.8 0.9 189.8 9.3 1.8 1.9
23-09-2021 266 22.6 13:52 12.2 6:10 18.0 98.2 78.3 50.8 0.8 222.0 16.9 0.2 2.8
22-09-2021 265 22.0 13:46 10.3 6:12 16.7 99.9 80.7 51.7 0.7 213.2 19.5 0.6 2.9
21-09-2021 264 21.3 10:26 11.9 3:18 15.8 99.9 89.2 66.1 0.5 203.7 10.8 1.4 1.9
20-09-2021 263 24.7 13:44 9.9 6:00 17.0 99.9 81.2 52.6 0.7 145.1 21.2 0.2 3.3
19-09-2021 262 25.1 13:34 8.9 5:52 17.5 93.2 68.1 40.1 0.6 176.3 22.0 0.0 3.4
18-09-2021 261 26.4 13:28 10.7 6:04 19.1 96.2 62.3 34.2 0.8 232.9 22.2 0.0 3.7
17-09-2021 260 25.5 16:28 10.6 6:18 18.2 97.3 68.7 36.9 0.8 196.2 22.6 0.0 3.7
16-09-2021 259 24.0 14:04 10.5 6:00 17.5 100.0 74.1 47.0 0.6 241.7 19.8 0.2 3.1
15-09-2021 258 22.6 14:48 13.1 5:40 17.5 98.0 74.3 52.0 0.8 224.9 13.3 1.0 2.5
14-09-2021 257 23.8 12:58 16.3 6:40 18.9 99.0 69.9 41.8 0.8 209.1 9.4 10.0 2.2
13-09-2021 256 24.1 11:04 17.9 4:20 21.5 76.2 50.3 37.6 1.1 201.2 8.3 0.2 2.5
12-09-2021 255 28.6 14:06 10.1 5:46 20.7 79.0 49.6 28.5 0.6 214.6 20.8 0.0 3.6
11-09-2021 254 26.9 13:36 10.7 6:12 19.0 77.0 52.9 32.3 0.6 180.8 22.1 0.0 3.7
10-09-2021 253 28.5 13:54 13.6 23:50 21.7 70.4 48.3 26.0 1.1 13.3 22.7 0.0 4.4
09-09-2021 252 24.7 14:18 17.1 4:24 20.5 69.6 54.9 40.7 2.0 341.2 22.8 0.0 4.7
08-09-2021 251 27.5 14:08 14.0 6:10 21.8 66.5 45.4 26.0 1.6 297.9 23.7 0.0 4.9
07-09-2021 250 30.8 13:02 16.9 5:56 24.7 60.6 40.4 28.8 0.7 221.8 22.1 0.0 4.2
06-09-2021 249 28.6 14:22 16.1 4:46 22.7 85.7 54.8 32.7 0.7 235.1 13.5 0.0 3.1
05-09-2021 248 26.9 15:38 11.8 6:14 20.9 89.4 60.7 36.7 0.8 209.2 23.4 0.0 4.1
04-09-2021 247 27.1 13:56 10.6 5:00 19.6 82.9 57.3 30.0 0.7 191.7 24.1 0.0 4.1
03-09-2021 246 25.9 14:20 10.9 6:18 19.1 86.8 59.5 39.0 0.8 167.0 24.1 0.0 4.1
02-09-2021 245 25.7 14:28 11.9 5:28 19.6 89.1 59.5 35.9 0.8 174.2 24.3 0.0 4.1
01-09-2021 244 24.9 11:26 16.1 3:26 20.3 93.8 72.9 54.0 0.8 199.5 19.6 0.0 3.6
31-08-2021 243 25.7 10:26 12.9 6:00 19.5 90.9 71.2 41.6 0.9 175.6 20.8 0.0 3.8
30-08-2021 242 29.2 15:30 12.5 5:42 21.0 79.2 52.3 27.7 0.7 203.9 24.4 0.0 4.4
29-08-2021 241 26.9 16:44 13.4 5:56 21.1 87.4 57.2 41.1 1.0 226.7 24.6 0.0 4.5
28-08-2021 240 29.6 14:10 14.2 6:08 23.0 83.9 43.2 15.0 1.4 312.5 25.3 0.2 5.3
27-08-2021 239 30.0 13:32 12.2 5:44 21.9 95.6 60.0 23.6 0.7 192.2 22.1 0.0 4.2
26-08-2021 238 25.4 16:12 13.6 5:44 20.3 99.9 74.0 49.4 0.9 174.7 25.1 0.0 4.3
25-08-2021 237 25.3 15:42 17.0 3:40 20.8 97.5 78.1 52.9 0.8 194.4 21.8 6.8 4.0
24-08-2021 236 27.2 14:28 18.3 1:48 21.6 91.2 77.6 51.9 1.0 177.2 17.2 0.0 3.6
23-08-2021 235 30.4 14:56 15.5 6:02 21.6 95.7 77.2 38.1 0.8 145.1 16.8 0.2 3.7
22-08-2021 234 27.6 17:00 18.3 23:40 22.9 94.1 66.9 29.8 0.9 139.9 11.7 0.0 3.1
21-08-2021 233 29.5 15:40 14.9 5:22 22.5 100.0 72.2 42.0 0.9 155.8 20.9 0.0 4.2
20-08-2021 232 27.5 16:02 18.3 3:28 22.3 99.5 73.3 41.3 0.8 165.8 25.4 0.0 4.7
19-08-2021 231 26.8 12:10 16.5 6:14 21.3 100.0 80.7 46.8 1.0 152.3 24.6 0.0 4.6
18-08-2021 230 25.6 16:28 17.9 23:56 21.9 94.3 76.5 59.5 1.1 165.4 24.5 0.0 4.5
17-08-2021 229 26.7 12:02 12.4 5:24 21.0 95.3 63.3 24.5 1.2 178.4 25.8 0.0 4.9
16-08-2021 228 37.4 16:16 16.5 5:32 27.4 61.5 26.7 3.2 0.9 250.7 24.5 0.0 5.5
15-08-2021 227 37.1 15:30 16.3 5:26 28.3 57.4 27.8 9.0 0.6 199.5 25.0 0.0 5.0
14-08-2021 226 38.0 13:48 15.9 5:22 27.1 71.6 33.3 8.7 0.6 204.1 24.9 0.0 5.2
13-08-2021 225 36.0 11:26 18.1 1:04 27.2 74.9 41.6 9.6 0.6 193.9 24.9 0.0 5.1
12-08-2021 224 32.9 17:14 17.0 5:52 25.5 77.6 51.8 26.5 0.9 169.1 24.9 0.0 5.3
11-08-2021 223 31.7 13:38 19.3 5:12 24.7 83.2 58.7 32.3 0.8 168.9 20.9 0.0 4.6
10-08-2021 222 29.4 15:36 18.5 5:04 22.4 94.2 74.8 49.8 0.9 149.0 19.5 0.0 4.1
09-08-2021 221 25.6 13:48 15.3 5:32 20.3 91.6 79.8 60.6 1.1 182.0 22.4 0.0 4.2
08-08-2021 220 28.0 15:16 13.2 5:42 21.6 75.3 53.8 30.8 0.8 178.6 27.1 0.0 5.0
07-08-2021 219 29.8 15:00 15.5 5:44 24.0 60.8 36.7 18.1 1.3 308.1 27.4 0.0 5.8
06-08-2021 218 33.7 14:24 13.8 5:22 25.8 61.7 30.4 13.9 1.0 277.5 27.2 0.0 5.7
05-08-2021 217 33.5 15:32 13.8 5:44 25.7 67.6 33.2 11.9 0.9 285.4 27.6 0.0 5.6
04-08-2021 216 30.8 15:20 12.4 5:34 23.0 89.3 47.5 17.3 0.9 299.0 26.9 0.0 5.3
03-08-2021 215 26.3 10:24 12.0 5:40 20.1 93.6 69.8 38.1 0.9 182.3 26.4 0.0 4.8
02-08-2021 214 24.9 13:42 10.2 5:50 18.5 89.0 56.2 32.6 0.9 166.4 21.8 0.0 4.1
01-08-2021 213 27.6 16:30 13.6 6:02 21.5 55.4 33.0 17.6 1.1 263.4 27.3 0.0 5.4
31-07-2021 212 26.5 13:36 17.6 4:18 22.9 48.6 31.4 13.2 1.9 302.0 27.9 0.0 6.3
30-07-2021 211 33.7 14:02 13.8 5:38 24.6 90.3 45.0 11.9 1.0 229.5 26.7 0.0 5.8
29-07-2021 210 30.4 17:10 14.5 4:52 22.0 94.3 69.6 39.6 0.9 182.5 26.9 0.0 5.3
28-07-2021 209 29.2 13:52 13.1 5:22 21.7 85.4 59.7 28.5 0.8 164.5 27.5 0.0 5.2
27-07-2021 208 26.6 16:20 15.3 5:52 21.3 91.4 66.2 42.8 0.8 167.6 27.6 0.0 5.0
26-07-2021 207 28.8 15:30 16.9 5:28 22.6 77.1 54.0 31.1 1.2 285.6 27.7 0.0 5.6
25-07-2021 206 29.6 15:40 14.2 5:28 23.5 60.8 32.6 11.9 1.4 298.6 28.1 0.0 6.0
24-07-2021 205 33.7 13:22 17.1 5:22 26.0 64.8 29.2 7.5 0.9 284.6 26.4 0.0 5.7
23-07-2021 204 32.9 18:08 20.7 23:58 28.4 52.7 27.2 19.5 0.7 249.7 23.0 0.0 5.0
22-07-2021 203 31.7 10:18 12.0 4:40 23.8 76.6 40.7 19.5 0.6 204.3 27.2 0.0 5.2
21-07-2021 202 29.8 12:20 10.1 5:32 21.5 63.7 39.8 16.0 0.6 172.3 28.9 0.0 5.2
20-07-2021 201 29.5 14:34 13.3 5:12 21.9 77.9 40.8 11.3 0.6 180.7 29.1 0.0 5.2
19-07-2021 200 32.8 10:46 17.1 4:40 26.1 64.8 38.4 20.5 0.8 257.8 27.4 0.0 5.7
18-07-2021 199 32.8 13:20 16.5 5:18 26.9 58.1 30.5 12.5 1.4 307.3 28.9 0.0 6.5
17-07-2021 198 32.1 17:08 13.6 3:58 23.9 83.7 45.1 23.2 0.8 197.4 27.8 0.0 5.6
16-07-2021 197 28.4 15:44 12.6 3:30 21.4 94.5 57.2 32.7 0.8 183.5 28.5 0.0 5.3
15-07-2021 196 25.1 11:30 13.8 5:28 19.9 91.0 63.0 37.0 0.9 189.6 28.8 0.0 5.1
14-07-2021 195 25.1 14:50 12.0 3:12 19.2 98.8 67.1 36.5 0.9 182.6 28.2 0.0 5.0
13-07-2021 194 25.1 13:16 13.2 5:52 20.4 88.6 51.4 23.2 1.1 172.6 29.2 0.0 5.4
12-07-2021 193 30.2 14:42 20.0 23:36 26.2 45.1 27.7 9.1 2.0 301.6 28.0 0.2 7.0
11-07-2021 192 36.4 13:24 14.7 5:26 27.0 74.7 36.8 13.0 0.8 265.5 21.3 0.0 5.2
10-07-2021 191 33.5 16:04 15.1 1:48 23.6 86.2 52.1 21.1 0.9 151.6 25.8 0.0 5.6
09-07-2021 190 26.4 12:52 14.9 5:06 20.6 99.9 70.8 48.0 0.9 166.1 27.3 0.0 5.0
08-07-2021 189 26.2 12:48 10.6 5:20 20.2 88.7 56.1 24.4 0.7 196.7 29.5 0.0 5.2
07-07-2021 188 28.1 15:36 17.8 5:12 22.9 72.1 39.3 11.3 1.3 302.2 29.4 0.0 6.1
06-07-2021 187 29.8 14:56 14.4 5:00 23.7 68.3 39.6 15.6 1.1 309.4 29.9 0.0 6.0
05-07-2021 186 32.6 14:56 12.5 5:18 24.7 62.9 34.6 19.5 0.9 217.2 29.3 0.0 6.0
04-07-2021 185 32.2 14:52 12.8 5:18 24.0 64.2 34.8 14.7 1.1 319.5 30.0 0.0 6.3
03-07-2021 184 32.9 14:44 10.1 5:44 23.3 71.0 33.2 9.5 0.8 302.2 30.6 0.0 6.0
02-07-2021 183 31.7 16:54 11.6 4:44 23.2 84.7 45.9 21.7 0.8 219.5 30.1 0.0 5.9
01-07-2021 182 28.5 18:08 11.0 4:02 21.4 90.4 56.6 32.7 0.9 177.9 29.9 0.0 5.6
30-06-2021 181 27.4 14:52 8.9 4:48 19.3 80.7 52.0 25.8 0.8 170.8 30.3 0.0 5.4
29-06-2021 180 28.8 16:58 11.4 5:12 21.6 53.4 30.4 12.1 0.9 232.0 30.3 0.0 5.7
28-06-2021 179 27.9 14:02 11.2 5:02 21.5 65.7 32.8 14.4 1.4 313.4 29.7 0.0 6.1
27-06-2021 178 29.0 15:46 10.4 4:48 20.9 76.4 45.3 24.5 0.9 252.4 29.7 0.0 5.6
26-06-2021 177 26.7 13:20 12.0 4:18 19.9 87.1 51.3 28.6 0.9 172.8 29.3 0.0 5.4
25-06-2021 176 24.2 13:00 11.3 4:38 18.2 93.1 68.6 48.0 1.0 167.4 29.3 0.0 5.0
24-06-2021 175 23.3 11:32 8.7 4:56 17.2 85.9 63.3 41.2 1.0 162.1 29.5 0.0 5.0
23-06-2021 174 25.2 14:02 10.3 4:56 18.6 82.8 51.6 29.6 1.0 172.3 30.0 0.0 5.3
22-06-2021 173 24.6 15:38 10.5 5:08 18.5 80.9 49.7 30.8 1.4 317.4 30.2 0.0 5.5
21-06-2021 172 23.2 14:50 10.8 4:54 17.6 92.7 53.3 23.0 1.4 302.8 30.7 0.0 5.5
20-06-2021 171 23.2 15:42 9.5 1:14 16.6 89.2 63.3 34.0 1.2 288.8 28.9 0.0 5.0
19-06-2021 170 21.0 17:14 12.2 23:58 15.6 86.3 63.0 34.8 0.7 277.3 10.8 0.4 2.5
18-06-2021 169 22.0 14:20 10.5 3:44 17.0 97.0 65.9 45.7 1.2 208.8 27.4 0.0 4.6
17-06-2021 168 20.8 14:20 12.6 23:34 16.2 94.8 78.3 53.2 0.7 220.8 14.5 0.8 2.8
16-06-2021 167 26.1 12:44 13.8 2:32 19.6 97.1 59.9 37.0 0.9 178.4 25.3 2.4 4.8
15-06-2021 166 27.2 12:32 14.4 3:32 20.8 82.3 53.6 34.6 0.9 166.5 23.9 0.0 4.8
14-06-2021 165 28.0 14:34 12.4 5:24 21.0 99.2 60.0 35.6 0.8 195.9 28.2 0.0 5.3
13-06-2021 164 25.7 15:54 13.1 4:44 20.0 90.5 60.5 41.2 0.9 167.8 28.4 0.0 5.1
12-06-2021 163 25.1 11:52 11.8 4:44 18.7 93.8 65.5 42.9 0.9 188.7 28.4 0.0 5.0
11-06-2021 162 26.8 12:14 11.3 5:14 20.4 88.3 50.4 30.2 0.7 186.0 28.7 0.0 5.2
10-06-2021 161 28.0 9:56 11.0 5:02 20.7 81.7 46.8 12.5 0.6 209.3 29.6 0.0 5.2
09-06-2021 160 29.6 11:46 10.6 4:50 20.8 90.9 49.6 18.4 0.6 197.4 29.3 0.0 5.3
08-06-2021 159 27.9 15:02 11.2 5:24 19.9 90.0 55.7 27.5 0.8 180.5 29.9 0.0 5.4
07-06-2021 158 26.3 14:48 9.3 5:04 19.1 92.4 56.0 38.1 0.8 211.1 30.1 0.0 5.3
06-06-2021 157 25.7 12:36 8.9 4:24 17.7 98.9 62.2 25.9 0.9 138.2 29.9 0.0 5.2
05-06-2021 156 19.4 16:30 12.1 --:-- 16.1 97.9 81.8 50.2 0.6 317.8 12.0 6.2 2.4
04-06-2021 155 23.0 11:50 13.2 22:28 16.5 97.4 80.7 46.5 0.6 235.0 14.9 0.0 2.9
03-06-2021 154 23.5 13:56 9.2 4:26 16.4 96.1 74.9 46.1 0.9 184.8 28.2 0.0 4.7
02-06-2021 153 23.5 16:10 7.9 5:26 16.6 95.6 62.3 23.4 0.7 210.3 29.6 0.0 4.8
01-06-2021 152 22.6 16:16 11.0 23:46 17.8 95.2 61.3 40.2 1.0 240.5 29.2 0.0 4.9
31-05-2021 151 26.0 14:06 15.5 5:30 20.3 88.9 55.9 38.3 0.9 227.2 20.8 0.0 4.2
30-05-2021 150 23.8 10:58 13.5 2:56 18.6 93.8 63.2 43.6 0.7 228.9 18.3 0.0 3.5
29-05-2021 149 23.5 14:32 11.3 5:36 17.8 99.9 73.4 46.5 0.9 169.5 28.0 0.0 4.7
28-05-2021 148 20.0 13:20 9.5 5:22 15.3 99.9 83.3 60.4 0.8 149.0 29.7 0.0 4.5
27-05-2021 147 17.3 10:46 11.6 3:02 13.5 100.0 89.6 66.7 0.6 83.5 7.4 14.6 1.6
26-05-2021 146 20.3 12:00 8.3 5:22 14.3 97.2 80.9 55.7 0.9 164.5 25.8 0.0 4.0
25-05-2021 145 21.8 12:46 7.0 4:46 14.8 97.3 62.3 36.2 0.9 166.1 28.3 0.0 4.5
24-05-2021 144 21.4 17:28 7.1 5:36 15.3 82.8 50.1 22.2 1.1 19.6 29.4 0.0 4.8
23-05-2021 143 15.9 00:12 8.0 22:56 12.8 99.4 75.6 35.6 0.5 240.6 7.2 21.8 1.7
22-05-2021 142 27.2 14:36 9.3 5:14 19.8 75.9 36.1 16.0 0.9 301.1 26.7 0.0 5.0
21-05-2021 141 27.6 14:04 8.0 5:48 18.9 99.3 55.0 27.3 0.8 285.5 28.0 0.0 5.0
20-05-2021 140 22.9 16:02 9.9 5:36 15.9 97.9 74.5 40.2 0.8 185.7 22.7 0.0 3.9
19-05-2021 139 25.5 12:32 11.2 6:00 19.2 84.7 55.2 33.5 0.9 249.7 27.9 0.0 5.0
18-05-2021 138 26.5 14:58 8.2 5:04 19.2 99.9 52.2 19.4 0.9 313.7 28.9 0.0 5.2
17-05-2021 137 27.0 5:54 12.2 --:-- 20.9 85.9 50.7 22.7 1.1 222.2 17.4 0.0 4.1
11-05-2021 131 16.8 16:32 6.4 23:56 11.1 84.6 56.2 35.4 1.5 344.2 28.6 0.2 4.2
10-05-2021 130 14.4 10:36 5.1 5:18 10.2 100.0 75.3 42.7 1.3 296.4 18.8 0.0 2.9
09-05-2021 129 17.8 12:42 8.5 23:44 13.5 100.0 83.8 51.5 1.2 219.6 18.0 0.0 3.0
08-05-2021 128 24.5 14:24 5.2 5:26 16.5 100.0 60.3 33.0 0.8 202.5 26.8 0.0 4.5
07-05-2021 127 24.4 13:34 5.9 5:22 16.1 100.0 61.1 32.4 0.7 188.6 28.1 0.0 4.5
06-05-2021 126 24.0 12:38 5.6 5:16 15.7 100.0 67.4 29.0 0.6 235.7 27.6 0.0 4.4
05-05-2021 125 21.8 13:30 5.9 6:00 14.3 100.0 74.2 42.0 0.8 288.9 26.2 0.8 4.1
04-05-2021 124 19.5 13:02 5.8 4:40 12.1 100.0 85.4 45.4 0.7 157.4 27.4 0.0 3.9
03-05-2021 123 16.0 13:06 5.0 5:12 9.7 100.0 81.3 50.3 0.6 166.4 12.3 4.0 2.1
02-05-2021 122 17.6 13:26 1.3 5:18 10.4 100.0 63.6 36.7 0.9 140.0 27.9 0.0 3.8
01-05-2021 121 15.4 14:30 4.1 5:42 10.2 96.7 60.2 33.1 1.3 308.0 26.6 0.0 3.7
30-04-2021 120 15.2 15:56 3.2 5:30 9.7 100.0 72.9 47.8 1.0 244.6 16.9 2.0 2.6
29-04-2021 119 15.0 13:48 4.8 4:42 10.1 100.0 75.1 51.7 0.7 298.9 13.3 1.2 2.2
28-04-2021 118 16.5 15:02 6.7 5:48 11.6 100.0 80.6 55.4 1.0 293.4 12.6 0.2 2.2
27-04-2021 117 12.5 13:16 6.2 00:44 10.4 100.0 100.0 98.5 0.8 185.8 4.7 22.6 0.9
26-04-2021 116 15.6 9:54 6.8 --:-- 11.3 100.0 88.4 54.5 0.9 174.2 13.2 1.4 2.2
25-04-2021 115 16.3 16:40 9.8 --:-- 12.4 100.0 90.3 63.1 0.6 173.3 8.1 3.8 1.6
24-04-2021 114 18.5 13:42 8.3 5:18 12.4 100.0 85.4 54.6 0.9 142.9 12.8 5.2 2.3
23-04-2021 113 17.1 13:34 7.8 00:02 11.9 100.0 88.2 57.0 0.6 216.5 16.8 0.0 2.6
22-04-2021 112 18.9 14:32 6.7 23:14 11.4 100.0 82.6 43.9 0.6 291.6 14.9 0.4 2.5
21-04-2021 111 17.7 13:06 8.0 2:34 12.8 100.0 60.7 39.3 1.1 315.3 16.2 0.4 2.8
20-04-2021 110 19.7 12:16 3.1 5:56 12.8 100.0 61.7 35.8 1.1 295.5 23.0 0.0 3.6
19-04-2021 109 19.5 14:40 2.8 1:02 11.9 100.0 64.5 26.0 0.7 277.7 20.7 0.0 3.2
18-04-2021 108 19.1 15:14 0.5 5:30 10.5 100.0 56.8 20.8 0.8 342.5 26.1 0.0 3.7
17-04-2021 107 16.6 13:58 4.6 5:38 10.4 100.0 72.4 33.9 0.9 305.9 22.1 3.0 3.2
16-04-2021 106 12.5 15:18 6.9 23:30 9.1 100.0 99.7 88.2 1.1 181.0 11.2 4.6 1.6
15-04-2021 105 11.5 13:28 8.3 23:28 9.4 100.0 100.0 99.9 0.8 180.8 4.5 10.8 0.9
14-04-2021 104 11.3 15:18 8.6 4:22 9.5 100.0 99.9 96.0 0.6 166.3 4.1 4.6 0.9
13-04-2021 103 16.1 14:06 9.3 --:-- 11.7 100.0 86.3 56.9 1.0 176.1 18.4 0.0 2.7
12-04-2021 102 17.3 12:50 3.9 5:48 10.9 100.0 87.2 56.1 0.8 179.8 19.2 0.0 2.7
11-04-2021 101 17.2 16:44 2.0 6:02 10.3 100.0 77.6 51.7 0.9 245.7 13.9 0.0 2.3
10-04-2021 100 15.8 12:42 5.1 23:50 10.9 100.0 90.5 64.2 0.7 189.0 14.4 0.8 2.2
09-04-2021 99 17.2 15:10 7.0 7:02 10.1 100.0 93.8 61.1 1.1 163.9 16.8 1.2 2.5
08-04-2021 98 10.5 16:46 7.0 23:04 8.8 100.0 100.0 99.9 1.3 181.9 6.1 1.8 0.9
07-04-2021 97 20.6 9:28 3.9 5:50 11.7 100.0 75.4 33.8 1.3 181.9 22.3 0.8 3.6
06-04-2021 96 21.6 13:34 2.8 6:00 12.7 100.0 64.5 27.7 0.7 183.4 22.5 0.0 3.4
05-04-2021 95 15.8 16:34 4.5 6:10 10.6 100.0 88.5 68.4 0.8 159.3 14.7 0.8 2.1
04-04-2021 94 18.1 11:50 4.0 5:52 11.5 95.1 69.1 45.4 0.9 162.7 21.9 0.2 3.1
03-04-2021 93 18.4 13:22 5.2 6:24 12.5 95.6 60.9 36.9 1.3 326.4 21.8 0.0 3.3
02-04-2021 92 16.6 13:04 4.6 5:16 11.6 100.0 65.1 41.0 1.6 311.0 21.5 0.0 3.1
01-04-2021 91 18.9 13:56 7.6 --:-- 13.2 84.4 61.3 38.9 1.1 180.9 22.4 0.0 3.4
31-03-2021 90 19.7 12:08 6.0 6:26 13.5 72.9 51.2 32.8 1.0 210.7 21.6 0.0 3.3
30-03-2021 89 21.4 12:54 7.6 6:08 15.0 73.2 46.0 24.9 1.0 182.8 15.4 0.0 3.0
29-03-2021 88 18.7 14:58 5.8 3:28 12.2 99.9 67.7 46.5 0.8 175.7 17.9 0.0 2.7
28-03-2021 87 12.9 10:02 6.2 4:04 9.7 100.0 88.1 66.3 1.0 175.5 12.7 0.0 1.8
27-03-2021 86 18.8 12:50 2.6 6:36 11.2 89.2 60.1 34.5 0.9 171.1 21.2 0.0 3.0
26-03-2021 85 19.7 12:52 1.1 5:52 11.3 91.9 54.1 26.2 0.7 158.1 18.3 0.0 2.7
25-03-2021 84 18.6 12:08 0.0 6:00 9.9 93.2 59.7 31.4 0.7 175.6 23.3 0.0 3.0
24-03-2021 83 19.7 13:44 1.3 5:56 11.3 86.1 54.6 32.7 0.8 181.1 23.0 0.0 3.1
23-03-2021 82 18.9 13:44 -0.6 6:28 9.6 79.3 50.8 28.6 0.8 293.8 23.1 0.0 3.0
22-03-2021 81 15.5 14:30 1.7 23:48 8.7 71.4 43.5 21.5 1.2 345.5 23.2 0.0 3.1
21-03-2021 80 12.5 14:22 -3.9 6:20 4.5 85.3 65.0 29.4 0.8 151.3 21.8 0.4 2.4
20-03-2021 79 9.1 14:00 0.4 8:30 5.4 85.3 53.9 36.3 2.3 42.0 15.1 1.0 2.3
19-03-2021 78 12.2 14:02 0.2 6:12 7.1 92.9 57.8 34.4 1.2 357.1 21.6 0.4 2.5
18-03-2021 77 15.6 13:36 -0.6 5:40 7.8 100.0 75.4 37.3 1.0 166.5 22.3 0.0 2.7
17-03-2021 76 15.8 13:12 0.2 6:36 8.5 100.0 73.2 38.1 0.9 191.6 21.6 0.0 2.6
16-03-2021 75 14.9 12:10 0.0 6:48 8.2 100.0 80.1 49.2 1.1 171.0 21.5 0.0 2.5
15-03-2021 74 16.9 13:40 0.0 5:04 8.0 100.0 72.9 43.0 0.8 169.6 20.8 0.0 2.5
14-03-2021 73 16.2 14:00 2.1 6:36 9.8 92.5 62.3 41.2 1.0 145.0 21.0 0.0 2.6
13-03-2021 72 16.1 16:52 2.1 4:54 9.8 100.0 71.1 46.7 0.9 250.9 18.8 0.0 2.4
12-03-2021 71 17.7 13:54 2.2 6:38 10.9 98.6 64.5 32.5 1.3 344.3 21.1 0.0 2.9
11-03-2021 70 18.3 13:26 -0.6 5:48 9.1 100.0 67.7 32.5 0.6 304.0 20.8 0.0 2.5
10-03-2021 69 13.7 15:08 -0.6 6:40 6.9 100.0 80.6 41.4 0.7 125.2 19.7 0.2 2.1
09-03-2021 68 11.5 13:12 2.2 6:28 6.3 100.0 87.7 59.6 0.6 214.7 13.5 1.2 1.6
08-03-2021 67 13.4 12:02 2.9 22:24 7.2 97.7 77.8 47.6 0.7 317.9 11.5 3.4 1.6
07-03-2021 66 12.8 15:10 5.5 23:24 9.0 93.2 79.7 63.2 0.7 290.6 7.7 0.0 1.3
06-03-2021 65 11.9 14:54 6.0 4:44 9.0 100.0 86.5 61.7 0.4 319.1 3.5 0.4 0.9
05-03-2021 64 12.9 12:44 3.7 7:00 8.1 100.0 85.3 68.4 0.6 236.4 10.9 0.6 1.4
04-03-2021 63 10.5 10:18 2.9 7:10 7.8 100.0 83.5 63.2 0.7 210.8 10.7 0.0 1.4
03-03-2021 62 14.6 10:48 3.9 5:32 8.5 100.0 90.6 51.5 1.1 184.5 13.3 0.0 1.8
02-03-2021 61 15.6 15:38 3.1 6:52 9.5 100.0 80.1 47.5 0.7 56.2 15.3 0.0 1.9
01-03-2021 60 14.1 13:46 4.3 7:08 9.1 100.0 81.6 48.7 0.8 61.9 12.9 3.0 1.7
28-02-2021 59 11.5 13:12 4.4 6:20 7.9 100.0 83.4 59.0 0.7 183.6 12.5 0.6 1.5
27-02-2021 58 10.4 12:04 4.3 3:04 7.6 100.0 90.5 67.9 0.7 187.2 9.8 0.0 1.2
26-02-2021 57 13.5 14:12 2.9 6:54 8.0 100.0 87.7 64.2 1.0 178.5 15.8 0.0 1.7
25-02-2021 56 12.7 13:02 2.5 5:18 8.3 100.0 80.2 62.6 0.7 229.5 13.1 0.1 1.5
24-02-2021 55 12.5 13:26 1.7 2:52 7.0 100.0 88.0 68.5 1.0 223.0 13.9 0.1 1.5
23-02-2021 54 12.2 13:34 -1.1 7:18 6.2 97.2 75.0 42.7 0.8 184.1 18.1 0.0 1.8
22-02-2021 53 9.7 14:20 3.0 6:04 6.2 82.9 60.0 40.4 1.8 331.3 18.3 0.0 2.0
21-02-2021 52 10.7 9:20 4.9 17:58 7.2 95.2 75.5 42.7 1.6 276.7 3.5 20.0 1.3
20-02-2021 51 17.3 12:12 4.6 1:48 10.8 89.8 57.6 34.1 0.7 267.1 15.6 0.0 1.9
19-02-2021 50 17.3 13:26 -1.8 7:12 8.0 94.0 61.1 36.2 0.5 247.7 17.5 0.0 1.8
18-02-2021 49 18.1 12:58 -0.8 7:10 8.2 100.0 64.2 26.3 0.6 351.2 16.1 0.0 1.8
17-02-2021 48 19.5 13:38 -0.7 6:56 8.6 95.3 66.7 25.7 0.3 169.5 16.2 0.0 1.6
16-02-2021 47 19.7 15:40 0.9 7:10 9.7 81.4 56.7 33.1 0.7 189.4 17.3 0.0 2.0
15-02-2021 46 12.7 13:14 6.2 20:06 8.8 74.1 61.5 53.6 0.9 236.3 17.0 0.0 1.8
14-02-2021 45 14.3 12:02 -0.6 7:24 7.9 85.1 63.7 40.0 0.7 195.9 16.8 0.0 1.7
13-02-2021 44 18.8 12:18 0.8 6:52 9.3 85.9 51.4 10.3 0.7 349.8 14.2 0.0 1.9
12-02-2021 43 14.4 12:42 6.8 23:54 10.8 100.0 69.0 43.4 2.1 343.4 15.3 0.0 2.0
11-02-2021 42 18.5 12:02 6.2 7:02 12.0 100.0 82.4 53.9 0.8 243.6 13.4 0.1 1.7
10-02-2021 41 11.8 13:50 7.8 1:56 9.9 100.0 95.5 79.5 2.3 279.0 2.8 32.7 0.8
09-02-2021 40 11.0 15:16 6.4 6:00 8.6 88.4 75.2 63.9 1.7 226.5 4.9 3.0 1.2
08-02-2021 39 10.9 14:38 5.6 3:50 7.8 100.0 78.8 52.6 2.2 263.1 11.1 14.8 1.5
07-02-2021 38 8.3 13:42 4.6 6:24 5.9 98.7 78.9 64.0 1.8 294.0 6.0 0.3 1.0
06-02-2021 37 9.3 11:14 5.3 23:10 7.2 100.0 79.9 62.5 1.4 224.1 4.7 5.6 1.0
05-02-2021 36 15.0 13:24 5.9 2:10 10.4 88.6 63.7 39.3 1.3 208.5 11.2 1.3 1.7
04-02-2021 35 17.9 13:56 7.2 23:06 12.4 67.7 50.5 29.4 0.8 259.4 10.5 0.0 1.6
03-02-2021 34 18.5 11:10 -0.6 7:28 8.4 88.0 60.0 25.7 0.4 222.6 10.8 0.0 1.3
02-02-2021 33 21.0 14:56 2.5 23:48 10.6 81.1 55.9 13.9 0.7 296.3 15.0 0.0 1.8
01-02-2021 32 14.2 14:48 7.2 23:16 11.0 82.7 66.9 52.0 2.7 0.8 11.4 0.6 1.9
31-01-2021 31 12.9 13:40 5.8 5:02 9.2 86.9 71.3 53.6 5.0 316.6 12.1 0.7 2.2
30-01-2021 30 14.3 4:40 3.7 3:48 9.1 85.7 68.7 37.7 2.7 296.8 9.2 0.0 2.1
29-01-2021 29 22.2 12:50 1.5 7:28 10.5 100.0 72.5 30.1 0.5 265.0 14.0 0.1 1.5
28-01-2021 28 22.4 12:42 2.4 7:04 11.2 100.0 78.1 24.8 0.2 156.7 13.6 0.1 1.1
27-01-2021 27 18.4 14:04 7.1 --:-- 13.1 100.0 81.7 50.4 1.2 35.1 13.7 0.0 1.6
26-01-2021 26 16.0 13:50 9.5 6:32 11.8 100.0 84.2 61.0 1.4 12.3 8.8 0.7 1.3
25-01-2021 25 11.6 15:08 7.4 5:30 9.7 100.0 91.0 71.0 1.5 297.4 2.2 12.4 0.8
24-01-2021 24 12.8 12:44 8.2 23:14 10.3 100.0 80.4 50.4 2.3 294.2 8.7 11.9 1.5
23-01-2021 23 10.6 12:44 6.2 7:06 7.9 100.0 76.3 56.8 1.6 271.2 7.8 3.4 1.1
22-01-2021 22 11.1 13:30 7.1 23:40 9.2 94.3 71.7 49.2 3.1 280.1 12.1 2.1 1.6
21-01-2021 21 11.1 14:04 6.6 22:06 8.4 97.9 83.0 67.1 1.6 277.4 3.9 0.8 0.9
20-01-2021 20 8.5 00:44 6.2 5:16 7.2 100.0 82.1 39.0 1.7 204.7 1.7 16.5 1.1
19-01-2021 19 13.2 15:18 -5.3 7:46 4.1 94.0 64.7 31.7 0.6 178.9 12.8 0.0 1.0
18-01-2021 18 13.6 12:56 -3.6 7:16 3.9 85.4 62.0 31.7 0.6 166.5 12.8 0.0 1.0
17-01-2021 17 15.8 15:08 -3.9 6:44 4.7 100.0 70.2 27.1 0.3 177.8 12.4 0.1 0.9